createdAt,value
2022-09-02T00:01:24.387Z,26.36
2022-09-02T00:03:55.053Z,26.48
2022-09-02T00:06:22.083Z,25.88
2022-09-02T00:08:49.795Z,26.71
2022-09-02T00:11:20.122Z,26.56
2022-09-02T00:13:47.209Z,26.61
2022-09-02T00:16:14.345Z,26.70
2022-09-02T00:18:44.960Z,26.61
2022-09-02T00:21:14.367Z,26.37
2022-09-02T00:23:43.113Z,26.48
2022-09-02T00:26:09.788Z,26.65
2022-09-02T00:28:36.721Z,26.54
2022-09-02T00:31:03.307Z,26.36
2022-09-02T00:33:31.546Z,26.12
2022-09-02T00:36:00.924Z,26.53
2022-09-02T00:38:28.773Z,26.22
2022-09-02T00:40:55.491Z,25.85
2022-09-02T00:43:39.494Z,25.69
2022-09-02T00:46:08.234Z,26.04
2022-09-02T00:48:37.925Z,26.41
2022-09-02T00:51:04.695Z,26.81
2022-09-02T00:53:33.948Z,27.12
2022-09-02T00:56:02.128Z,27.10
2022-09-02T00:58:34.033Z,26.81
2022-09-02T01:01:00.905Z,26.46
2022-09-02T01:03:30.986Z,26.66
2022-09-02T01:05:59.446Z,24.84
2022-09-02T01:08:30.036Z,25.38
2022-09-02T01:10:57.118Z,26.06
2022-09-02T01:13:27.207Z,26.00
2022-09-02T01:16:13.173Z,25.38
2022-09-02T01:18:41.890Z,25.53
2022-09-02T01:21:08.858Z,26.10
2022-09-02T01:23:36.188Z,25.61
2022-09-02T01:26:05.145Z,26.31
2022-09-02T01:28:33.453Z,26.33
2022-09-02T01:31:00.866Z,25.69
2022-09-02T01:33:27.504Z,25.77
2022-09-02T01:35:55.434Z,26.14
2022-09-02T01:38:23.741Z,25.82
2022-09-02T01:40:50.932Z,25.89
2022-09-02T01:43:20.949Z,26.03
2022-09-02T01:45:51.944Z,25.65
2022-09-02T01:48:21.531Z,25.74
2022-09-02T01:50:56.593Z,25.61
2022-09-02T01:53:23.625Z,26.00
2022-09-02T01:55:52.791Z,25.97
2022-09-02T01:58:20.311Z,26.00
2022-09-02T02:00:48.384Z,26.04
2022-09-02T02:03:15.328Z,26.04
2022-09-02T02:05:42.562Z,26.39
2022-09-02T02:08:09.813Z,26.26
2022-09-02T02:10:36.591Z,26.00
2022-09-02T02:13:04.875Z,26.55
2022-09-02T02:17:59.028Z,27.04
2022-09-02T02:20:27.039Z,26.91
2022-09-02T02:22:53.830Z,26.70
2022-09-02T02:25:20.869Z,26.66
2022-09-02T02:27:51.289Z,26.60
2022-09-02T02:30:21.362Z,26.78
2022-09-02T02:32:48.466Z,26.96
2022-09-02T02:35:19.238Z,26.98
2022-09-02T02:37:49.175Z,27.14
2022-09-02T02:40:21.942Z,27.16
2022-09-02T02:42:53.133Z,27.14
2022-09-02T02:45:23.185Z,26.80
2022-09-02T02:47:51.080Z,26.82
2022-09-02T02:50:20.701Z,26.54
2022-09-02T02:52:48.833Z,26.36
2022-09-02T02:55:17.110Z,26.11
2022-09-02T02:57:44.498Z,26.10
2022-09-02T03:00:12.005Z,26.69
2022-09-02T03:02:39.324Z,26.81
2022-09-02T03:05:09.536Z,26.93
2022-09-02T03:07:36.208Z,27.02
2022-09-02T03:10:08.278Z,26.21
2022-09-02T03:12:37.220Z,24.92
2022-09-02T03:15:04.681Z,24.30
2022-09-02T03:17:31.430Z,24.15
2022-09-02T03:19:59.708Z,24.23
2022-09-02T03:22:29.166Z,24.19
2022-09-02T03:24:56.610Z,24.22
2022-09-02T03:27:23.630Z,24.26
2022-09-02T03:29:51.123Z,24.09
2022-09-02T03:32:17.966Z,23.93
2022-09-02T03:34:45.939Z,23.43
2022-09-02T03:37:12.579Z,23.71
2022-09-02T03:39:41.214Z,23.70
2022-09-02T03:42:08.109Z,23.66
2022-09-02T03:44:47.684Z,23.78
2022-09-02T03:47:15.143Z,23.64
2022-09-02T03:49:41.818Z,23.81
2022-09-02T03:52:11.499Z,23.81
2022-09-02T03:54:38.691Z,23.77
2022-09-02T03:57:06.090Z,23.66
2022-09-02T03:59:33.089Z,23.72
2022-09-02T04:02:02.766Z,23.62
2022-09-02T04:04:30.572Z,23.71
2022-09-02T04:06:58.105Z,23.73
2022-09-02T04:09:26.671Z,23.66
2022-09-02T04:11:53.679Z,23.48
2022-09-02T04:14:20.453Z,23.61
2022-09-02T04:16:47.456Z,23.73
2022-09-02T04:19:14.699Z,23.73
2022-09-02T04:21:42.219Z,23.69
2022-09-02T04:24:11.515Z,23.47
2022-09-02T04:26:45.310Z,23.42
2022-09-02T04:29:15.519Z,23.61
2022-09-02T04:31:43.455Z,23.77
2022-09-02T04:34:11.112Z,23.82
2022-09-02T04:36:37.845Z,23.85
2022-09-02T04:39:09.432Z,23.77
2022-09-02T04:41:37.737Z,23.82
2022-09-02T04:44:08.006Z,23.55
2022-09-02T04:46:38.521Z,23.47
2022-09-02T04:49:08.740Z,23.61
2022-09-02T04:51:38.130Z,23.02
2022-09-02T04:54:06.750Z,22.78
2022-09-02T04:56:33.838Z,22.54
2022-09-02T04:59:02.397Z,22.81
2022-09-02T05:01:32.755Z,22.93
2022-09-02T05:04:09.939Z,22.43
2022-09-02T05:06:44.259Z,23.07
2022-09-02T05:09:15.466Z,24.18
2022-09-02T05:11:42.564Z,25.64
2022-09-02T05:14:09.601Z,26.70
2022-09-02T05:16:40.089Z,27.72
2022-09-02T05:19:11.814Z,28.69
2022-09-02T05:21:45.022Z,29.64
2022-09-02T05:24:17.776Z,30.83
2022-09-02T05:26:44.994Z,31.77
2022-09-02T05:29:14.206Z,32.56
2022-09-02T05:31:42.418Z,33.47
2022-09-02T05:34:14.007Z,33.99
2022-09-02T05:36:41.612Z,34.41
2022-09-02T05:39:09.303Z,34.44
2022-09-02T05:41:37.377Z,34.86
2022-09-02T05:44:06.752Z,35.19
2022-09-02T05:46:35.408Z,35.25
2022-09-02T05:49:07.563Z,35.39
2022-09-02T05:51:44.314Z,35.87
2022-09-02T05:54:15.673Z,36.61
2022-09-02T05:56:44.917Z,35.91
2022-09-02T05:59:13.485Z,36.42
2022-09-02T06:01:41.227Z,36.52
2022-09-02T06:04:08.181Z,37.23
2022-09-02T06:06:38.646Z,36.91
2022-09-02T06:09:08.526Z,37.11
2022-09-02T06:11:42.850Z,37.62
2022-09-02T06:14:11.417Z,37.96
2022-09-02T06:16:38.929Z,37.25
2022-09-02T06:19:10.206Z,37.87
2022-09-02T06:21:38.734Z,37.60
2022-09-02T06:24:07.231Z,37.87
2022-09-02T06:26:36.300Z,37.85
2022-09-02T06:29:03.990Z,38.27
2022-09-02T06:31:34.583Z,38.75
2022-09-02T06:34:03.655Z,38.89
2022-09-02T06:36:31.746Z,39.64
2022-09-02T06:39:01.014Z,39.85
2022-09-02T06:41:33.369Z,40.46
2022-09-02T06:44:07.083Z,40.81
2022-09-02T06:46:39.537Z,40.61
2022-09-02T06:49:09.161Z,40.68
2022-09-02T06:51:40.286Z,40.16
2022-09-02T06:54:10.137Z,41.15
2022-09-02T06:56:38.777Z,40.90
2022-09-02T06:59:07.334Z,41.21
2022-09-02T07:01:54.297Z,42.11
2022-09-02T07:04:41.936Z,42.71
2022-09-02T07:07:12.332Z,43.23
2022-09-02T07:09:50.054Z,42.94
2022-09-02T07:12:19.544Z,43.22
2022-09-02T07:15:07.665Z,43.88
2022-09-02T07:17:38.558Z,42.94
2022-09-02T07:20:10.374Z,42.88
2022-09-02T07:22:42.475Z,43.18
2022-09-02T07:25:11.421Z,43.13
2022-09-02T07:27:38.286Z,43.22
2022-09-02T07:30:06.725Z,43.09
2022-09-02T07:32:37.424Z,43.74
2022-09-02T07:35:06.956Z,44.57
2022-09-02T07:37:35.153Z,43.28
2022-09-02T07:40:08.184Z,43.62
2022-09-02T07:42:35.260Z,42.85
2022-09-02T07:45:02.141Z,42.71
2022-09-02T07:47:29.030Z,42.63
2022-09-02T07:52:43.025Z,42.35
2022-09-02T07:55:14.885Z,43.24
2022-09-02T07:57:43.062Z,43.07
2022-09-02T08:00:12.186Z,42.92
2022-09-02T08:02:41.628Z,42.75
2022-09-02T08:05:11.357Z,42.06
2022-09-02T08:07:38.303Z,41.62
2022-09-02T08:10:09.967Z,42.13
2022-09-02T08:12:37.981Z,41.38
2022-09-02T08:15:05.541Z,41.13
2022-09-02T08:17:32.713Z,41.15
2022-09-02T08:19:59.334Z,42.02
2022-09-02T08:22:26.995Z,42.14
2022-09-02T08:24:53.566Z,41.83
2022-09-02T08:27:20.290Z,41.72
2022-09-02T08:29:47.216Z,40.61
2022-09-02T08:32:13.831Z,39.13
2022-09-02T08:34:40.437Z,39.57
2022-09-02T08:37:07.198Z,40.80
2022-09-02T08:39:33.867Z,39.93
2022-09-02T08:42:19.212Z,40.08
2022-09-02T08:44:47.284Z,39.74
2022-09-02T08:47:22.828Z,40.02
2022-09-02T08:49:53.434Z,40.54
2022-09-02T08:52:33.761Z,40.00
2022-09-02T08:55:02.716Z,38.07
2022-09-02T08:57:32.361Z,37.77
2022-09-02T09:00:02.439Z,38.27
2022-09-02T09:03:32.928Z,37.23
2022-09-02T09:06:14.816Z,36.64
2022-09-02T09:09:23.455Z,37.32
2022-09-02T09:12:07.703Z,36.63
2022-09-02T09:14:56.070Z,36.57
2022-09-02T09:17:30.388Z,35.65
2022-09-02T09:20:03.073Z,35.89
2022-09-02T09:22:33.398Z,35.35
2022-09-02T09:25:01.010Z,34.47
2022-09-02T09:27:28.273Z,35.49
2022-09-02T09:29:55.727Z,35.03
2022-09-02T09:32:33.617Z,34.81
2022-09-02T09:35:10.752Z,34.58
2022-09-02T09:37:38.722Z,34.27
2022-09-02T09:40:23.348Z,33.11
2022-09-02T09:43:14.658Z,32.75
2022-09-02T09:45:49.874Z,31.72
2022-09-02T09:48:16.718Z,31.92
2022-09-02T09:50:44.895Z,31.98
2022-09-02T09:53:18.360Z,31.62
2022-09-02T09:55:52.804Z,32.42
2022-09-02T09:58:22.098Z,32.71
2022-09-02T10:00:49.165Z,32.36
2022-09-02T10:03:23.742Z,31.99
2022-09-02T10:05:57.301Z,32.24
2022-09-02T10:08:26.759Z,32.73
2022-09-02T10:11:21.567Z,32.19
2022-09-02T10:13:48.202Z,32.32
2022-09-02T10:16:45.342Z,31.69
2022-09-02T10:19:22.892Z,32.02
2022-09-02T10:22:07.480Z,32.23
2022-09-02T10:24:55.221Z,32.23
2022-09-02T10:27:32.169Z,31.63
2022-09-02T10:30:22.035Z,31.63
2022-09-02T10:33:13.396Z,31.50
2022-09-02T10:35:44.519Z,31.31
2022-09-02T10:38:39.791Z,32.05
2022-09-02T10:44:38.152Z,32.57
2022-09-02T10:47:29.470Z,31.89
2022-09-02T10:50:13.444Z,31.27
2022-09-02T10:52:58.524Z,31.51
2022-09-02T10:55:51.342Z,30.27
2022-09-02T10:58:25.340Z,30.57
2022-09-02T11:00:56.783Z,31.48
2022-09-02T11:03:29.724Z,31.32
2022-09-02T11:06:22.071Z,31.03
2022-09-02T11:09:12.405Z,30.82
2022-09-02T11:11:45.870Z,30.47
2022-09-02T11:14:35.574Z,30.65
2022-09-02T11:17:16.534Z,31.81
2022-09-02T11:20:09.030Z,31.34
2022-09-02T11:23:03.455Z,31.36
2022-09-02T11:25:38.687Z,30.94
2022-09-02T11:28:30.014Z,30.83
2022-09-02T11:31:06.748Z,31.47
2022-09-02T11:33:51.280Z,30.69
2022-09-02T11:36:18.488Z,31.01
2022-09-02T11:38:58.570Z,31.29
2022-09-02T11:41:35.433Z,31.80
2022-09-02T11:44:30.840Z,31.05
2022-09-02T11:47:08.935Z,31.08
2022-09-02T11:49:50.618Z,32.15
2022-09-02T11:52:33.879Z,33.08
2022-09-02T11:55:17.632Z,33.31
2022-09-02T11:57:53.831Z,33.04
2022-09-02T12:00:36.753Z,32.90
2022-09-02T12:03:16.629Z,33.05
2022-09-02T12:05:52.318Z,32.85
2022-09-02T12:08:28.098Z,32.26
2022-09-02T12:11:00.013Z,31.65
2022-09-02T12:16:42.421Z,31.97
2022-09-02T12:19:10.653Z,32.45
2022-09-02T12:22:15.142Z,32.94
2022-09-02T12:24:55.146Z,32.78
2022-09-02T12:27:26.122Z,33.04
2022-09-02T12:29:53.270Z,33.21
2022-09-02T12:32:48.841Z,33.14
2022-09-02T12:35:34.754Z,33.02
2022-09-02T12:38:11.765Z,33.28
2022-09-02T12:40:56.253Z,33.74
2022-09-02T12:43:57.688Z,33.44
2022-09-02T12:46:36.506Z,33.74
2022-09-02T12:49:22.057Z,34.25
2022-09-02T12:51:55.342Z,34.04
2022-09-02T12:54:29.794Z,32.88
2022-09-02T12:56:56.456Z,32.96
2022-09-02T12:59:30.093Z,32.63
2022-09-02T13:02:35.125Z,33.15
2022-09-02T13:05:28.569Z,33.78
2022-09-02T13:08:04.442Z,33.73
2022-09-02T13:11:21.967Z,32.96
2022-09-02T13:14:30.057Z,32.98
2022-09-02T13:17:35.709Z,33.48
2022-09-02T13:20:32.415Z,33.11
2022-09-02T13:23:16.323Z,33.60
2022-09-02T13:26:02.765Z,32.88
2022-09-02T13:28:46.141Z,31.89
2022-09-02T13:31:27.466Z,32.82
2022-09-02T13:34:03.668Z,32.12
2022-09-02T13:36:36.493Z,32.02
2022-09-02T13:39:26.802Z,31.98
2022-09-02T13:41:54.567Z,32.59
2022-09-02T13:44:29.427Z,32.38
2022-09-02T13:47:03.259Z,33.22
2022-09-02T13:49:37.943Z,32.83
2022-09-02T13:52:12.173Z,32.83
2022-09-02T13:54:48.503Z,32.63
2022-09-02T13:57:20.798Z,32.27
2022-09-02T13:59:50.256Z,32.39
2022-09-02T14:02:25.918Z,32.52
2022-09-02T14:05:20.276Z,32.74
2022-09-02T14:07:51.390Z,32.51
2022-09-02T14:10:23.232Z,32.27
2022-09-02T14:12:51.143Z,32.46
2022-09-02T14:15:27.756Z,31.94
2022-09-02T14:18:08.798Z,31.79
2022-09-02T14:20:36.834Z,31.71
2022-09-02T14:23:03.767Z,31.89
2022-09-02T14:25:37.987Z,32.34
2022-09-02T14:28:20.542Z,32.65
2022-09-02T14:31:05.439Z,32.66
2022-09-02T14:33:44.474Z,32.33
2022-09-02T14:36:23.626Z,32.16
2022-09-02T14:38:55.746Z,32.26
2022-09-02T14:41:47.206Z,32.49
2022-09-02T14:44:23.526Z,32.23
2022-09-02T14:46:53.011Z,32.73
2022-09-02T14:49:28.841Z,32.93
2022-09-02T14:51:58.806Z,33.22
2022-09-02T14:54:40.052Z,33.53
2022-09-02T14:57:19.143Z,33.84
2022-09-02T14:59:45.810Z,33.53
2022-09-02T15:02:27.596Z,33.78
2022-09-02T15:04:59.089Z,33.58
2022-09-02T15:07:26.600Z,33.16
2022-09-02T15:09:53.478Z,32.47
2022-09-02T15:12:24.629Z,32.43
2022-09-02T15:14:54.286Z,32.26
2022-09-02T15:17:21.221Z,32.48
2022-09-02T15:19:48.423Z,31.97
2022-09-02T15:22:16.395Z,32.27
2022-09-02T15:24:46.896Z,31.70
2022-09-02T15:27:14.270Z,32.64
2022-09-02T15:29:43.969Z,32.25
2022-09-02T15:32:10.922Z,32.62
2022-09-02T15:34:37.551Z,31.82
2022-09-02T15:37:04.918Z,31.95
2022-09-02T15:39:31.567Z,32.38
2022-09-02T15:41:58.660Z,31.91
2022-09-02T15:44:25.921Z,31.74
2022-09-02T15:46:53.594Z,31.74
2022-09-02T15:49:21.791Z,32.63
2022-09-02T15:51:49.801Z,32.99
2022-09-02T15:54:19.106Z,32.36
2022-09-02T15:56:47.683Z,32.48
2022-09-02T15:59:17.558Z,32.76
2022-09-02T16:01:46.224Z,32.68
2022-09-02T16:04:13.896Z,32.31
2022-09-02T16:06:42.858Z,31.51
2022-09-02T16:09:11.740Z,31.47
2022-09-02T16:11:40.089Z,30.69
2022-09-02T16:14:07.479Z,31.51
2022-09-02T16:16:35.796Z,31.48
2022-09-02T16:19:05.143Z,31.91
2022-09-02T16:21:31.927Z,31.82
2022-09-02T16:23:59.015Z,31.70
2022-09-02T16:26:31.349Z,31.02
2022-09-02T16:29:00.371Z,31.65
2022-09-02T16:31:29.825Z,31.23
2022-09-02T16:33:59.494Z,32.00
2022-09-02T16:36:29.100Z,31.83
2022-09-02T16:39:01.093Z,31.65
2022-09-02T16:41:32.351Z,31.54
2022-09-02T16:44:00.814Z,31.57
2022-09-02T16:46:29.345Z,31.47
2022-09-02T16:48:56.533Z,31.29
2022-09-02T16:51:24.684Z,30.76
2022-09-02T16:54:09.593Z,30.74
2022-09-02T16:56:44.494Z,30.46
2022-09-02T16:59:12.688Z,30.83
2022-09-02T17:01:40.477Z,30.97
2022-09-02T17:04:08.767Z,31.43
2022-09-02T17:06:41.280Z,30.61
2022-09-02T17:09:09.239Z,30.25
2022-09-02T17:11:39.761Z,30.97
2022-09-02T17:14:11.961Z,30.97
2022-09-02T17:16:44.341Z,30.81
2022-09-02T17:19:12.201Z,30.98
2022-09-02T17:21:43.908Z,31.12
2022-09-02T17:24:12.645Z,30.97
2022-09-02T17:26:41.254Z,30.94
2022-09-02T17:29:26.270Z,30.28
2022-09-02T17:31:59.806Z,29.98
2022-09-02T17:34:26.616Z,30.40
2022-09-02T17:36:53.417Z,30.24
2022-09-02T17:39:20.595Z,29.95
2022-09-02T17:41:54.319Z,30.74
2022-09-02T17:44:26.956Z,30.99
2022-09-02T17:46:55.841Z,30.58
2022-09-02T17:49:22.546Z,30.43
2022-09-02T17:51:49.555Z,30.63
2022-09-02T17:54:16.490Z,31.07
2022-09-02T17:57:09.748Z,31.43
2022-09-02T18:00:04.035Z,31.30
2022-09-02T18:03:22.565Z,30.92
2022-09-02T18:05:52.233Z,30.94
2022-09-02T18:08:47.595Z,30.77
2022-09-02T18:11:14.232Z,30.53
2022-09-02T18:13:48.021Z,30.59
2022-09-02T18:16:29.334Z,30.31
2022-09-02T18:19:13.831Z,30.02
2022-09-02T18:22:11.542Z,29.23
2022-09-02T18:24:46.246Z,29.33
2022-09-02T18:27:40.687Z,29.60
2022-09-02T18:30:14.915Z,29.48
2022-09-02T18:32:55.162Z,29.53
2022-09-02T18:35:45.151Z,29.72
2022-09-02T18:38:38.754Z,29.47
2022-09-02T18:41:05.602Z,29.43
2022-09-02T18:43:54.490Z,29.55
2022-09-02T18:46:24.902Z,29.16
2022-09-02T18:48:56.625Z,29.18
2022-09-02T18:51:40.862Z,29.32
2022-09-02T18:54:19.293Z,29.21
2022-09-02T18:56:53.546Z,28.78
2022-09-02T18:59:31.777Z,28.58
2022-09-02T19:02:06.583Z,29.30
2022-09-02T19:04:36.944Z,28.93
2022-09-02T19:07:23.937Z,28.93
2022-09-02T19:09:50.981Z,28.94
2022-09-02T19:12:17.819Z,28.75
2022-09-02T19:14:44.357Z,28.55
2022-09-02T19:17:12.820Z,28.94
2022-09-02T19:19:39.436Z,28.87
2022-09-02T19:22:10.331Z,28.64
2022-09-02T19:24:43.239Z,28.54
2022-09-02T19:27:13.320Z,28.59
2022-09-02T19:29:44.772Z,28.45
2022-09-02T19:32:12.972Z,28.33
2022-09-02T19:34:44.379Z,28.66
2022-09-02T19:37:13.416Z,28.73
2022-09-02T19:39:40.760Z,28.35
2022-09-02T19:42:07.487Z,28.54
2022-09-02T19:44:34.049Z,28.11
2022-09-02T19:49:48.017Z,27.54
2022-09-02T19:52:14.939Z,27.59
2022-09-02T19:54:41.697Z,27.79
2022-09-02T19:57:08.301Z,27.72
2022-09-02T19:59:34.863Z,27.32
2022-09-02T20:02:04.486Z,27.50
2022-09-02T20:04:32.106Z,26.81
2022-09-02T20:06:58.849Z,26.90
2022-09-02T20:09:25.937Z,26.85
2022-09-02T20:11:56.732Z,27.24
2022-09-02T20:14:23.774Z,27.49
2022-09-02T20:16:56.746Z,26.73
2022-09-02T20:19:23.924Z,27.09
2022-09-02T20:21:53.526Z,27.29
2022-09-02T20:24:31.121Z,27.21
2022-09-02T20:27:06.751Z,27.34
2022-09-02T20:30:08.879Z,27.43
2022-09-02T20:33:01.686Z,27.18
2022-09-02T20:35:44.286Z,27.18
2022-09-02T20:38:29.138Z,26.61
2022-09-02T20:41:20.560Z,27.04
2022-09-02T20:44:07.206Z,27.35
2022-09-02T20:46:58.661Z,27.13
2022-09-02T20:50:01.552Z,26.74
2022-09-02T20:53:01.222Z,26.63
2022-09-02T20:55:39.007Z,26.95
2022-09-02T20:58:22.138Z,26.73
2022-09-02T21:01:11.734Z,27.07
2022-09-02T21:03:44.403Z,26.71
2022-09-02T21:06:11.190Z,26.53
2022-09-02T21:08:47.666Z,26.47
2022-09-02T21:11:16.142Z,26.65
2022-09-02T21:13:51.355Z,26.66
2022-09-02T21:16:23.920Z,26.71
2022-09-02T21:19:23.715Z,26.91
2022-09-02T21:22:05.725Z,26.70
2022-09-02T21:24:36.398Z,26.61
2022-09-02T21:27:20.688Z,26.28
2022-09-02T21:30:05.746Z,26.39
2022-09-02T21:32:41.444Z,26.19
2022-09-02T21:35:13.473Z,26.68
2022-09-02T21:37:43.799Z,26.82
2022-09-02T21:40:15.711Z,26.01
2022-09-02T21:43:10.350Z,25.94
2022-09-02T21:45:54.350Z,25.76
2022-09-02T21:48:38.565Z,26.13
2022-09-02T21:51:36.905Z,26.26
2022-09-02T21:54:13.025Z,26.25
2022-09-02T21:57:01.455Z,26.53
2022-09-02T21:59:50.929Z,26.20
2022-09-02T22:02:40.615Z,25.94
2022-09-02T22:05:30.514Z,25.59
2022-09-02T22:08:11.594Z,25.97
2022-09-02T22:11:04.043Z,25.90
2022-09-02T22:13:31.823Z,26.05
2022-09-02T22:16:28.082Z,26.17
2022-09-02T22:19:01.606Z,26.49
2022-09-02T22:21:49.057Z,26.49
2022-09-02T22:24:22.053Z,26.59
2022-09-02T22:26:55.401Z,26.49
2022-09-02T22:29:36.461Z,26.05
2022-09-02T22:32:08.087Z,25.74
2022-09-02T22:34:42.837Z,25.64
2022-09-02T22:37:16.047Z,26.07
2022-09-02T22:39:50.806Z,26.42
2022-09-02T22:42:37.632Z,26.06
2022-09-02T22:45:49.135Z,25.62
2022-09-02T22:48:42.147Z,26.00
2022-09-02T22:51:34.895Z,25.72
2022-09-02T22:54:01.830Z,26.15
2022-09-02T22:56:39.262Z,26.51
2022-09-02T22:59:05.726Z,26.54
2022-09-02T23:02:05.736Z,26.61
2022-09-02T23:04:40.358Z,26.74
2022-09-02T23:07:07.600Z,26.46
2022-09-02T23:09:37.745Z,26.51
2022-09-02T23:12:19.394Z,26.62
2022-09-02T23:15:10.880Z,26.13
2022-09-02T23:18:07.323Z,26.47
2022-09-02T23:20:49.720Z,26.49
2022-09-02T23:23:37.641Z,26.01
2022-09-02T23:26:50.786Z,25.63
2022-09-02T23:29:26.191Z,25.86
2022-09-02T23:32:22.540Z,26.05
2022-09-02T23:35:11.231Z,26.14
2022-09-02T23:38:00.212Z,26.04
2022-09-02T23:40:38.001Z,26.04
2022-09-02T23:43:04.914Z,26.04
2022-09-02T23:45:33.782Z,25.94
2022-09-02T23:48:11.356Z,26.08
2022-09-02T23:50:57.695Z,26.17
2022-09-02T23:53:33.726Z,26.07
2022-09-02T23:56:29.760Z,26.17
2022-09-02T23:59:10.435Z,26.04
